Time,TemperatureF,DewpointF,PressureIn,WindDirection,WindDirectionDegrees,WindSpeedMPH,WindSpeedGustMPH,Humidity,HourlyPrecipIn,Conditions,Clouds,dailyrainin,SoftwareType,DateUTC
2013-03-29 00:00:00,38.6,30.4,30.26,West,275,0.0,0.0,72,0.00,,,0.00,WeatherCatV1.11B39,2013-03-29 04:00:00,
2013-03-29 00:01:00,38.5,30.3,30.26,West,275,0.0,0.0,72,0.00,,,0.00,WeatherCatV1.11B39,2013-03-29 04:01:00,
2013-03-29 00:06:00,38.4,30.8,30.25,West,275,0.0,0.0,74,0.00,,,0.00,WeatherCatV1.11B39,2013-03-29 04:06:00,
2013-03-29 00:11:00,38.3,30.4,30.26,West,275,0.0,0.0,73,0.00,,,0.00,WeatherCatV1.11B39,2013-03-29 04:11:00,
2013-03-29 00:16:00,38.3,31.1,30.25,West,275,0.0,0.0,75,0.00,,,0.00,WeatherCatV1.11B39,2013-03-29 04:16:00,
2013-03-29 00:21:00,38.2,30.7,30.25,West,275,0.0,0.0,74,0.00,,,0.00,WeatherCatV1.11B39,2013-03-29 04:21:00,
2013-03-29 00:26:00,38.2,30.3,30.25,West,275,0.0,0.0,73,0.00,,,0.00,WeatherCatV1.11B39,2013-03-29 04:26:00,
2013-03-29 00:31:00,38.1,30.9,30.25,West,275,0.0,0.0,75,0.00,,,0.00,WeatherCatV1.11B39,2013-03-29 04:31:00,
2013-03-29 00:36:00,38.0,31.1,30.26,West,275,0.0,0.0,76,0.00,,,0.00,WeatherCatV1.11B39,2013-03-29 04:36:00,
2013-03-29 00:41:00,37.9,31.0,30.26,West,275,1.0,1.0,76,0.00,,,0.00,WeatherCatV1.11B39,2013-03-29 04:41:00,
2013-03-29 00:46:00,37.8,30.6,30.26,West,275,0.0,0.0,75,0.00,,,0.00,WeatherCatV1.11B39,2013-03-29 04:46:00,
2013-03-29 00:51:00,37.7,30.2,30.26,West,275,0.0,0.0,74,0.00,,,0.00,WeatherCatV1.11B39,2013-03-29 04:51:00,
2013-03-29 00:56:00,37.7,29.8,30.26,West,275,0.0,0.0,73,0.00,,,0.00,WeatherCatV1.11B39,2013-03-29 04:56:00,
2013-03-29 01:01:00,37.7,29.5,30.26,West,275,0.0,0.0,72,0.00,,,0.00,WeatherCatV1.11B39,2013-03-29 05:01:00,
2013-03-29 01:06:00,37.7,29.5,30.26,West,275,0.0,0.0,72,0.00,,,0.00,WeatherCatV1.11B39,2013-03-29 05:06:00,
2013-03-29 01:11:00,37.7,29.2,30.26,West,275,0.0,0.0,71,0.00,,,0.00,WeatherCatV1.11B39,2013-03-29 05:11:00,
2013-03-29 01:16:00,37.6,29.4,30.26,West,275,0.0,0.0,72,0.00,,,0.00,WeatherCatV1.11B39,2013-03-29 05:16:00,
2013-03-29 01:21:00,37.4,29.2,30.25,West,275,0.0,0.0,72,0.00,,,0.00,WeatherCatV1.11B39,2013-03-29 05:21:00,
2013-03-29 01:26:00,37.3,29.1,30.25,West,275,0.0,0.0,72,0.00,,,0.00,WeatherCatV1.11B39,2013-03-29 05:26:00,
2013-03-29 01:31:00,37.3,29.1,30.25,West,275,0.0,0.0,72,0.00,,,0.00,WeatherCatV1.11B39,2013-03-29 05:31:00,
2013-03-29 01:36:00,37.1,29.3,30.25,West,275,0.0,0.0,73,0.00,,,0.00,WeatherCatV1.11B39,2013-03-29 05:36:00,
2013-03-29 01:41:00,36.9,29.1,30.25,West,275,0.0,0.0,73,0.00,,,0.00,WeatherCatV1.11B39,2013-03-29 05:41:00,
2013-03-29 01:46:00,36.8,29.3,30.25,West,275,0.0,0.0,74,0.00,,,0.00,WeatherCatV1.11B39,2013-03-29 05:46:00,
2013-03-29 01:51:00,36.6,29.1,30.25,West,275,0.0,0.0,74,0.00,,,0.00,WeatherCatV1.11B39,2013-03-29 05:51:00,
2013-03-29 01:56:00,36.4,28.6,30.26,West,275,0.0,0.0,73,0.00,,,0.00,WeatherCatV1.11B39,2013-03-29 05:56:00,
2013-03-29 02:01:00,36.2,28.4,30.26,West,275,0.0,0.0,73,0.00,,,0.00,WeatherCatV1.11B39,2013-03-29 06:01:00,
2013-03-29 02:05:00,36.1,28.6,30.26,West,275,1.0,1.0,74,0.00,,,0.00,WeatherCatV1.11B39,2013-03-29 06:05:00,
2013-03-29 02:10:00,36.0,28.5,30.26,West,275,1.0,2.0,74,0.00,,,0.00,WeatherCatV1.11B39,2013-03-29 06:10:00,
2013-03-29 02:15:00,35.9,28.4,30.26,West,275,2.0,2.0,74,0.00,,,0.00,WeatherCatV1.11B39,2013-03-29 06:15:00,
2013-03-29 02:20:00,35.9,28.4,30.25,West,275,1.0,1.0,74,0.00,,,0.00,WeatherCatV1.11B39,2013-03-29 06:20:00,
2013-03-29 02:25:00,35.8,28.3,30.25,West,275,2.0,2.0,74,0.00,,,0.00,WeatherCatV1.11B39,2013-03-29 06:25:00,
2013-03-29 02:30:00,35.8,28.0,30.25,West,275,1.0,1.0,73,0.00,,,0.00,WeatherCatV1.11B39,2013-03-29 06:30:00,
2013-03-29 02:35:00,35.8,28.3,30.25,West,275,0.0,0.0,74,0.00,,,0.00,WeatherCatV1.11B39,2013-03-29 06:35:00,
2013-03-29 02:40:00,35.7,28.6,30.25,West,275,2.0,2.0,75,0.00,,,0.00,WeatherCatV1.11B39,2013-03-29 06:40:00,
2013-03-29 02:45:00,35.7,28.2,30.25,West,275,1.0,2.0,74,0.00,,,0.00,WeatherCatV1.11B39,2013-03-29 06:45:00,
2013-03-29 02:50:00,35.6,28.1,30.25,West,275,1.0,4.0,74,0.00,,,0.00,WeatherCatV1.11B39,2013-03-29 06:50:00,
2013-03-29 02:55:00,35.5,27.7,30.25,West,275,2.0,2.0,73,0.00,,,0.00,WeatherCatV1.11B39,2013-03-29 06:55:00,
2013-03-29 03:00:00,35.5,28.7,30.26,West,275,0.0,0.0,76,0.00,,,0.00,WeatherCatV1.11B39,2013-03-29 07:00:00,
2013-03-29 03:05:00,35.2,27.8,30.26,West,275,2.0,2.0,74,0.00,,,0.00,WeatherCatV1.11B39,2013-03-29 07:05:00,
2013-03-29 03:10:00,35.1,28.0,30.25,West,275,0.0,2.0,75,0.00,,,0.00,WeatherCatV1.11B39,2013-03-29 07:10:00,
2013-03-29 03:15:00,35.0,28.5,30.25,West,275,0.0,0.0,77,0.00,,,0.00,WeatherCatV1.11B39,2013-03-29 07:15:00,
2013-03-29 03:20:00,34.7,27.6,30.25,West,275,0.0,0.0,75,0.00,,,0.00,WeatherCatV1.11B39,2013-03-29 07:20:00,
2013-03-29 03:25:00,34.5,28.0,30.25,West,275,0.0,0.0,77,0.00,,,0.00,WeatherCatV1.11B39,2013-03-29 07:25:00,
2013-03-29 03:30:00,34.3,27.9,30.25,West,275,0.0,0.0,77,0.00,,,0.00,WeatherCatV1.11B39,2013-03-29 07:30:00,
2013-03-29 03:35:00,34.1,28.3,30.25,West,275,0.0,0.0,79,0.00,,,0.00,WeatherCatV1.11B39,2013-03-29 07:35:00,
2013-03-29 03:40:00,33.8,28.3,30.25,West,275,0.0,0.0,80,0.00,,,0.00,WeatherCatV1.11B39,2013-03-29 07:40:00,
2013-03-29 03:45:00,33.7,28.2,30.25,West,275,1.0,2.0,80,0.00,,,0.00,WeatherCatV1.11B39,2013-03-29 07:45:00,
2013-03-29 03:50:00,33.6,27.8,30.25,West,275,2.0,4.0,79,0.00,,,0.00,WeatherCatV1.11B39,2013-03-29 07:50:00,
2013-03-29 03:55:00,33.7,27.3,30.25,West,275,1.0,2.0,77,0.00,,,0.00,WeatherCatV1.11B39,2013-03-29 07:55:00,
2013-03-29 04:00:00,33.8,27.4,30.25,West,275,1.0,2.0,77,0.00,,,0.00,WeatherCatV1.11B39,2013-03-29 08:00:00,
2013-03-29 04:05:00,33.9,27.1,30.25,West,275,0.0,2.0,76,0.00,,,0.00,WeatherCatV1.11B39,2013-03-29 08:05:00,
2013-03-29 04:10:00,33.9,27.1,30.25,West,275,0.0,0.0,76,0.00,,,0.00,WeatherCatV1.11B39,2013-03-29 08:10:00,
2013-03-29 04:15:00,33.9,27.1,30.25,West,275,0.0,0.0,76,0.00,,,0.00,WeatherCatV1.11B39,2013-03-29 08:15:00,
2013-03-29 04:20:00,33.9,26.8,30.25,West,275,0.0,0.0,75,0.00,,,0.00,WeatherCatV1.11B39,2013-03-29 08:20:00,
2013-03-29 04:25:00,33.8,27.1,30.25,West,275,0.0,0.0,76,0.00,,,0.00,WeatherCatV1.11B39,2013-03-29 08:25:00,
2013-03-29 04:30:00,33.7,27.3,30.25,West,275,0.0,0.0,77,0.00,,,0.00,WeatherCatV1.11B39,2013-03-29 08:30:00,
2013-03-29 04:35:00,33.5,27.1,30.25,West,275,0.0,0.0,77,0.00,,,0.00,WeatherCatV1.11B39,2013-03-29 08:35:00,
2013-03-29 04:40:00,33.3,26.9,30.25,West,275,0.0,0.0,77,0.00,,,0.00,WeatherCatV1.11B39,2013-03-29 08:40:00,
2013-03-29 04:45:00,33.2,27.1,30.25,West,275,0.0,0.0,78,0.00,,,0.00,WeatherCatV1.11B39,2013-03-29 08:45:00,
2013-03-29 04:50:00,33.2,26.8,30.25,West,275,0.0,0.0,77,0.00,,,0.00,WeatherCatV1.11B39,2013-03-29 08:50:00,
2013-03-29 04:55:00,33.2,27.1,30.24,West,275,0.0,0.0,78,0.00,,,0.00,WeatherCatV1.11B39,2013-03-29 08:55:00,
2013-03-29 05:00:00,33.2,26.5,30.24,West,275,0.0,0.0,76,0.00,,,0.00,WeatherCatV1.11B39,2013-03-29 09:00:00,
2013-03-29 05:05:00,33.2,26.5,30.24,West,275,0.0,0.0,76,0.00,,,0.00,WeatherCatV1.11B39,2013-03-29 09:05:00,
2013-03-29 05:10:00,33.2,26.8,30.24,West,275,0.0,0.0,77,0.00,,,0.00,WeatherCatV1.11B39,2013-03-29 09:10:00,
2013-03-29 05:15:00,33.1,26.7,30.24,West,275,0.0,0.0,77,0.00,,,0.00,WeatherCatV1.11B39,2013-03-29 09:15:00,
2013-03-29 05:20:00,33.0,26.9,30.24,West,275,0.0,0.0,78,0.00,,,0.00,WeatherCatV1.11B39,2013-03-29 09:20:00,
2013-03-29 05:25:00,32.6,27.1,30.25,West,275,0.0,0.0,80,0.00,,,0.00,WeatherCatV1.11B39,2013-03-29 09:25:00,
2013-03-29 05:30:00,32.4,26.9,30.25,West,275,0.0,0.0,80,0.00,,,0.00,WeatherCatV1.11B39,2013-03-29 09:30:00,
2013-03-29 05:35:00,32.2,27.0,30.25,West,275,0.0,0.0,81,0.00,,,0.00,WeatherCatV1.11B39,2013-03-29 09:35:00,
2013-03-29 05:40:00,32.0,27.1,30.25,West,275,0.0,0.0,82,0.00,,,0.00,WeatherCatV1.11B39,2013-03-29 09:40:00,
2013-03-29 05:45:00,31.7,27.1,30.25,West,275,0.0,0.0,83,0.00,,,0.00,WeatherCatV1.11B39,2013-03-29 09:45:00,
2013-03-29 05:50:00,31.5,26.9,30.25,West,275,0.0,0.0,83,0.00,,,0.00,WeatherCatV1.11B39,2013-03-29 09:50:00,
2013-03-29 05:55:00,31.5,26.9,30.24,West,275,0.0,1.0,83,0.00,,,0.00,WeatherCatV1.11B39,2013-03-29 09:55:00,
2013-03-29 06:00:00,31.4,27.1,30.24,West,275,0.0,0.0,84,0.00,,,0.00,WeatherCatV1.11B39,2013-03-29 10:00:00,
2013-03-29 06:05:00,31.4,26.8,30.25,West,275,0.0,0.0,83,0.00,,,0.00,WeatherCatV1.11B39,2013-03-29 10:05:00,
2013-03-29 06:10:00,31.3,26.5,30.25,West,275,0.0,0.0,82,0.00,,,0.00,WeatherCatV1.11B39,2013-03-29 10:10:00,
2013-03-29 06:15:00,31.2,26.9,30.25,West,275,2.0,2.0,84,0.00,,,0.00,WeatherCatV1.11B39,2013-03-29 10:15:00,
2013-03-29 06:20:00,31.1,26.8,30.25,West,275,0.0,0.0,84,0.00,,,0.00,WeatherCatV1.11B39,2013-03-29 10:20:00,
2013-03-29 06:25:00,31.0,27.0,30.25,West,275,0.0,0.0,85,0.00,,,0.00,WeatherCatV1.11B39,2013-03-29 10:25:00,
2013-03-29 06:30:00,31.0,26.7,30.26,West,275,2.0,4.0,84,0.00,,,0.00,WeatherCatV1.11B39,2013-03-29 10:30:00,
2013-03-29 06:35:00,31.1,26.3,30.26,West,275,1.0,2.0,82,0.00,,,0.00,WeatherCatV1.11B39,2013-03-29 10:35:00,
2013-03-29 06:40:00,31.4,27.1,30.26,West,275,0.0,1.0,84,0.00,,,0.00,WeatherCatV1.11B39,2013-03-29 10:40:00,
2013-03-29 06:45:00,31.5,27.5,30.26,West,275,0.0,0.0,85,0.00,,,0.00,WeatherCatV1.11B39,2013-03-29 10:45:00,
2013-03-29 06:50:00,31.5,27.2,30.26,West,275,0.0,0.0,84,0.00,,,0.00,WeatherCatV1.11B39,2013-03-29 10:50:00,
2013-03-29 06:55:00,31.6,27.3,30.26,West,275,0.0,0.0,84,0.00,,,0.00,WeatherCatV1.11B39,2013-03-29 10:55:00,
2013-03-29 07:00:00,31.7,27.1,30.26,West,275,0.0,0.0,83,0.00,,,0.00,WeatherCatV1.11B39,2013-03-29 11:00:00,
2013-03-29 07:04:00,31.7,27.1,30.26,West,275,0.0,0.0,83,0.00,,,0.00,WeatherCatV1.11B39,2013-03-29 11:04:00,
2013-03-29 07:09:00,31.8,27.2,30.26,West,275,0.0,0.0,83,0.00,,,0.00,WeatherCatV1.11B39,2013-03-29 11:09:00,
2013-03-29 07:14:00,32.0,27.4,30.26,West,275,0.0,0.0,83,0.00,,,0.00,WeatherCatV1.11B39,2013-03-29 11:14:00,
2013-03-29 07:19:00,32.1,27.5,30.26,West,275,0.0,0.0,83,0.00,,,0.00,WeatherCatV1.11B39,2013-03-29 11:19:00,
2013-03-29 07:24:00,32.1,27.2,30.26,West,275,0.0,0.0,82,0.00,,,0.00,WeatherCatV1.11B39,2013-03-29 11:24:00,
2013-03-29 07:29:00,32.2,27.6,30.26,West,275,0.0,0.0,83,0.00,,,0.00,WeatherCatV1.11B39,2013-03-29 11:29:00,
2013-03-29 07:34:00,32.2,27.6,30.26,West,275,0.0,0.0,83,0.00,,,0.00,WeatherCatV1.11B39,2013-03-29 11:34:00,
2013-03-29 07:39:00,32.1,27.5,30.26,West,275,0.0,0.0,83,0.00,,,0.00,WeatherCatV1.11B39,2013-03-29 11:39:00,
2013-03-29 07:44:00,32.1,27.5,30.26,West,275,0.0,0.0,83,0.00,,,0.00,WeatherCatV1.11B39,2013-03-29 11:44:00,
2013-03-29 07:49:00,32.2,27.3,30.26,WSW,242,1.0,2.0,82,0.00,,,0.00,WeatherCatV1.11B39,2013-03-29 11:49:00,
2013-03-29 07:54:00,32.7,28.7,30.27,WSW,242,0.0,0.0,85,0.00,,,0.00,WeatherCatV1.11B39,2013-03-29 11:54:00,
2013-03-29 07:59:00,32.8,28.8,30.27,WSW,242,0.0,0.0,85,0.00,,,0.00,WeatherCatV1.11B39,2013-03-29 11:59:00,
2013-03-29 08:04:00,32.9,28.6,30.27,WSW,242,0.0,0.0,84,0.00,,,0.00,WeatherCatV1.11B39,2013-03-29 12:04:00,
2013-03-29 08:09:00,33.1,28.5,30.27,WSW,242,0.0,0.0,83,0.00,,,0.00,WeatherCatV1.11B39,2013-03-29 12:09:00,
2013-03-29 08:14:00,33.5,28.9,30.27,WSW,242,0.0,0.0,83,0.00,,,0.00,WeatherCatV1.11B39,2013-03-29 12:14:00,
2013-03-29 08:19:00,33.9,29.3,30.27,WSW,242,0.0,0.0,83,0.00,,,0.00,WeatherCatV1.11B39,2013-03-29 12:19:00,
2013-03-29 08:24:00,34.4,30.1,30.27,WSW,242,0.0,0.0,84,0.00,,,0.00,WeatherCatV1.11B39,2013-03-29 12:24:00,
2013-03-29 08:29:00,34.8,30.5,30.27,WSW,242,0.0,0.0,84,0.00,,,0.00,WeatherCatV1.11B39,2013-03-29 12:29:00,
2013-03-29 08:34:00,35.1,30.5,30.28,WSW,242,0.0,0.0,83,0.00,,,0.00,WeatherCatV1.11B39,2013-03-29 12:34:00,
2013-03-29 08:39:00,35.1,29.9,30.28,WSW,242,2.0,3.0,81,0.00,,,0.00,WeatherCatV1.11B39,2013-03-29 12:39:00,
2013-03-29 08:44:00,35.7,30.1,30.28,NNW,334,0.0,2.0,80,0.00,,,0.00,WeatherCatV1.11B39,2013-03-29 12:44:00,
2013-03-29 08:49:00,36.1,29.6,30.28,NNW,334,2.0,2.0,77,0.00,,,0.00,WeatherCatV1.11B39,2013-03-29 12:49:00,
2013-03-29 08:54:00,36.8,29.3,30.28,NNW,334,1.0,4.0,74,0.00,,,0.00,WeatherCatV1.11B39,2013-03-29 12:54:00,
2013-03-29 08:59:00,37.5,30.3,30.29,NNW,334,2.0,2.0,75,0.00,,,0.00,WeatherCatV1.11B39,2013-03-29 12:59:00,
2013-03-29 09:04:00,38.1,32.2,30.29,NNW,334,0.0,0.0,79,0.00,,,0.00,WeatherCatV1.11B39,2013-03-29 13:04:00,
2013-03-29 09:09:00,38.4,30.8,30.29,NNW,334,1.0,2.0,74,0.00,,,0.00,WeatherCatV1.11B39,2013-03-29 13:09:00,
2013-03-29 09:14:00,39.3,30.7,30.29,NNW,334,0.0,1.0,71,0.00,,,0.00,WeatherCatV1.11B39,2013-03-29 13:14:00,
2013-03-29 09:19:00,40.1,32.2,30.29,NNW,334,0.0,0.0,73,0.00,,,0.00,WeatherCatV1.11B39,2013-03-29 13:19:00,
2013-03-29 09:24:00,41.0,34.0,30.29,NNW,334,0.0,0.0,76,0.00,,,0.00,WeatherCatV1.11B39,2013-03-29 13:24:00,
2013-03-29 09:29:00,41.8,33.1,30.29,NNW,334,0.0,0.0,71,0.00,,,0.00,WeatherCatV1.11B39,2013-03-29 13:29:00,
2013-03-29 09:34:00,42.6,33.2,30.29,NNW,334,0.0,1.0,69,0.00,,,0.00,WeatherCatV1.11B39,2013-03-29 13:34:00,
2013-03-29 09:39:00,43.1,35.0,30.29,NNW,334,1.0,2.0,73,0.00,,,0.00,WeatherCatV1.11B39,2013-03-29 13:39:00,
2013-03-29 09:44:00,43.5,33.3,30.29,NNW,334,1.0,4.0,67,0.00,,,0.00,WeatherCatV1.11B39,2013-03-29 13:44:00,
2013-03-29 09:49:00,44.0,34.1,30.29,NNW,334,0.0,1.0,68,0.00,,,0.00,WeatherCatV1.11B39,2013-03-29 13:49:00,
2013-03-29 09:54:00,44.6,30.7,30.29,NNW,334,0.0,1.0,58,0.00,,,0.00,WeatherCatV1.11B39,2013-03-29 13:54:00,
2013-03-29 09:59:00,45.5,30.7,30.29,NNW,334,1.0,2.0,56,0.00,,,0.00,WeatherCatV1.11B39,2013-03-29 13:59:00,
2013-03-29 10:04:00,46.5,27.9,30.29,NE,52,1.0,5.0,48,0.00,,,0.00,WeatherCatV1.11B39,2013-03-29 14:04:00,
2013-03-29 10:09:00,47.5,27.8,30.28,NE,52,2.0,3.0,46,0.00,,,0.00,WeatherCatV1.11B39,2013-03-29 14:09:00,
2013-03-29 10:14:00,48.1,28.8,30.29,NNE,32,2.0,4.0,47,0.00,,,0.00,WeatherCatV1.11B39,2013-03-29 14:14:00,
2013-03-29 10:19:00,48.5,29.2,30.29,NE,36,1.0,2.0,47,0.00,,,0.00,WeatherCatV1.11B39,2013-03-29 14:19:00,
2013-03-29 10:24:00,48.7,28.3,30.29,NE,39,0.0,3.0,45,0.00,,,0.00,WeatherCatV1.11B39,2013-03-29 14:24:00,
2013-03-29 10:29:00,48.9,27.4,30.29,East,98,4.0,6.0,43,0.00,,,0.00,WeatherCatV1.11B39,2013-03-29 14:29:00,
2013-03-29 10:34:00,48.7,28.3,30.29,East,98,0.0,2.0,45,0.00,,,0.00,WeatherCatV1.11B39,2013-03-29 14:34:00,
2013-03-29 10:39:00,49.0,29.1,30.29,NE,38,4.0,5.0,46,0.00,,,0.00,WeatherCatV1.11B39,2013-03-29 14:39:00,
2013-03-29 10:44:00,49.5,29.0,30.29,NE,47,2.0,2.0,45,0.00,,,0.00,WeatherCatV1.11B39,2013-03-29 14:44:00,
2013-03-29 10:49:00,49.7,28.1,30.29,North,5,1.0,3.0,43,0.00,,,0.00,WeatherCatV1.11B39,2013-03-29 14:49:00,
2013-03-29 10:54:00,49.9,27.7,30.29,NNE,30,5.0,7.0,42,0.00,,,0.00,WeatherCatV1.11B39,2013-03-29 14:54:00,
2013-03-29 10:59:00,50.0,27.8,30.29,NE,51,4.0,4.0,42,0.00,,,0.00,WeatherCatV1.11B39,2013-03-29 14:59:00,
2013-03-29 11:04:00,50.1,27.9,30.29,NE,41,1.0,2.0,42,0.00,,,0.00,WeatherCatV1.11B39,2013-03-29 15:04:00,
2013-03-29 11:09:00,50.1,27.9,30.30,East,85,4.0,5.0,42,0.00,,,0.00,WeatherCatV1.11B39,2013-03-29 15:09:00,
2013-03-29 11:14:00,49.8,27.1,30.30,East,97,5.0,6.0,41,0.00,,,0.00,WeatherCatV1.11B39,2013-03-29 15:14:00,
2013-03-29 11:19:00,49.6,27.5,30.30,East,97,2.0,2.0,42,0.00,,,0.00,WeatherCatV1.11B39,2013-03-29 15:19:00,
2013-03-29 11:24:00,49.5,26.8,30.29,East,98,2.0,5.0,41,0.00,,,0.00,WeatherCatV1.11B39,2013-03-29 15:24:00,
2013-03-29 11:29:00,49.6,28.0,30.29,East,96,0.0,2.0,43,0.00,,,0.00,WeatherCatV1.11B39,2013-03-29 15:29:00,
2013-03-29 11:34:00,50.0,29.0,30.29,East,88,2.0,3.0,44,0.00,,,0.00,WeatherCatV1.11B39,2013-03-29 15:34:00,
2013-03-29 11:39:00,50.3,29.2,30.28,ESE,123,4.0,4.0,44,0.00,,,0.00,WeatherCatV1.11B39,2013-03-29 15:39:00,
2013-03-29 11:44:00,50.5,27.7,30.29,SSE,162,6.0,7.0,41,0.00,,,0.00,WeatherCatV1.11B39,2013-03-29 15:44:00,
2013-03-29 11:49:00,50.6,29.5,30.29,ESE,115,4.0,6.0,44,0.00,,,0.00,WeatherCatV1.11B39,2013-03-29 15:49:00,
2013-03-29 11:54:00,50.8,27.4,30.29,ESE,123,2.0,4.0,40,0.00,,,0.00,WeatherCatV1.11B39,2013-03-29 15:54:00,
2013-03-29 11:59:00,50.8,27.4,30.29,SE,144,0.0,4.0,40,0.00,,,0.00,WeatherCatV1.11B39,2013-03-29 15:59:00,
2013-03-29 12:03:00,51.0,28.1,30.28,SE,145,0.0,0.0,41,0.00,,,0.00,WeatherCatV1.11B39,2013-03-29 16:03:00,
2013-03-29 12:08:00,51.3,26.6,30.28,ESE,123,1.0,2.0,38,0.00,,,0.00,WeatherCatV1.11B39,2013-03-29 16:08:00,
2013-03-29 12:13:00,51.5,26.7,30.28,ESE,123,0.0,0.0,38,0.00,,,0.00,WeatherCatV1.11B39,2013-03-29 16:13:00,
2013-03-29 12:18:00,52.0,27.8,30.28,ESE,123,2.0,2.0,39,0.00,,,0.00,WeatherCatV1.11B39,2013-03-29 16:18:00,
2013-03-29 12:23:00,52.0,26.5,30.27,SE,135,4.0,5.0,37,0.00,,,0.00,WeatherCatV1.11B39,2013-03-29 16:23:00,
2013-03-29 12:28:00,51.8,27.0,30.27,SE,136,6.0,7.0,38,0.00,,,0.00,WeatherCatV1.11B39,2013-03-29 16:28:00,
2013-03-29 12:33:00,51.5,26.7,30.27,SE,141,2.0,4.0,38,0.00,,,0.00,WeatherCatV1.11B39,2013-03-29 16:33:00,
2013-03-29 12:38:00,51.8,26.4,30.27,SE,142,1.0,4.0,37,0.00,,,0.00,WeatherCatV1.11B39,2013-03-29 16:38:00,
2013-03-29 12:43:00,52.2,26.7,30.27,SE,142,0.0,0.0,37,0.00,,,0.00,WeatherCatV1.11B39,2013-03-29 16:43:00,
2013-03-29 12:48:00,52.9,27.3,30.26,SE,141,1.0,2.0,37,0.00,,,0.00,WeatherCatV1.11B39,2013-03-29 16:48:00,
2013-03-29 12:53:00,53.6,26.6,30.26,SE,128,0.0,0.0,35,0.00,,,0.00,WeatherCatV1.11B39,2013-03-29 16:53:00,
2013-03-29 12:58:00,54.1,27.1,30.26,SE,136,2.0,6.0,35,0.00,,,0.00,WeatherCatV1.11B39,2013-03-29 16:58:00,
2013-03-29 13:03:00,54.3,27.2,30.25,SE,129,1.0,4.0,35,0.00,,,0.00,WeatherCatV1.11B39,2013-03-29 17:03:00,
2013-03-29 13:08:00,55.0,27.2,30.25,SE,129,1.0,1.0,34,0.00,,,0.00,WeatherCatV1.11B39,2013-03-29 17:08:00,
2013-03-29 13:13:00,55.9,27.9,30.25,NW,311,4.0,5.0,34,0.00,,,0.00,WeatherCatV1.11B39,2013-03-29 17:13:00,
2013-03-29 13:18:00,55.9,28.7,30.25,SE,131,4.0,12.0,35,0.00,,,0.00,WeatherCatV1.11B39,2013-03-29 17:18:00,
2013-03-29 13:23:00,55.7,29.2,30.25,ESE,117,7.0,7.0,36,0.00,,,0.00,WeatherCatV1.11B39,2013-03-29 17:23:00,
2013-03-29 13:28:00,55.5,29.7,30.24,WNW,283,1.0,7.0,37,0.00,,,0.00,WeatherCatV1.11B39,2013-03-29 17:28:00,
2013-03-29 13:33:00,55.8,27.9,30.24,SSE,155,5.0,5.0,34,0.00,,,0.00,WeatherCatV1.11B39,2013-03-29 17:33:00,
2013-03-29 13:38:00,55.8,28.6,30.23,SSE,164,7.0,8.0,35,0.00,,,0.00,WeatherCatV1.11B39,2013-03-29 17:38:00,
2013-03-29 13:43:00,55.6,30.4,30.23,SE,133,6.0,7.0,38,0.00,,,0.00,WeatherCatV1.11B39,2013-03-29 17:43:00,
2013-03-29 13:48:00,55.7,31.8,30.23,SW,218,6.0,6.0,40,0.00,,,0.00,WeatherCatV1.11B39,2013-03-29 17:48:00,
2013-03-29 13:53:00,55.9,29.3,30.23,West,259,1.0,6.0,36,0.00,,,0.00,WeatherCatV1.11B39,2013-03-29 17:53:00,
2013-03-29 13:58:00,56.3,29.0,30.23,West,261,6.0,8.0,35,0.00,,,0.00,WeatherCatV1.11B39,2013-03-29 17:58:00,
2013-03-29 14:03:00,56.5,29.2,30.22,NW,311,0.0,6.0,35,0.00,,,0.00,WeatherCatV1.11B39,2013-03-29 18:03:00,
2013-03-29 14:08:00,56.8,28.0,30.23,WNW,292,7.0,8.0,33,0.00,,,0.00,WeatherCatV1.11B39,2013-03-29 18:08:00,
2013-03-29 14:13:00,56.8,28.7,30.22,NW,306,2.0,4.0,34,0.00,,,0.00,WeatherCatV1.11B39,2013-03-29 18:13:00,
2013-03-29 14:18:00,57.0,28.2,30.22,SE,132,5.0,6.0,33,0.00,,,0.00,WeatherCatV1.11B39,2013-03-29 18:18:00,
2013-03-29 14:23:00,56.9,28.8,30.22,SE,128,0.0,1.0,34,0.00,,,0.00,WeatherCatV1.11B39,2013-03-29 18:23:00,
2013-03-29 14:28:00,57.6,30.2,30.22,SE,124,1.0,4.0,35,0.00,,,0.00,WeatherCatV1.11B39,2013-03-29 18:28:00,
2013-03-29 14:33:00,58.4,30.1,30.22,West,271,1.0,2.0,34,0.00,,,0.00,WeatherCatV1.11B39,2013-03-29 18:33:00,
2013-03-29 14:38:00,58.5,29.5,30.21,WNW,286,7.0,8.0,33,0.00,,,0.00,WeatherCatV1.11B39,2013-03-29 18:38:00,
2013-03-29 14:43:00,58.1,29.2,30.20,SE,138,7.0,7.0,33,0.00,,,0.00,WeatherCatV1.11B39,2013-03-29 18:43:00,
2013-03-29 14:48:00,58.2,31.4,30.20,NE,42,4.0,6.0,36,0.00,,,0.00,WeatherCatV1.11B39,2013-03-29 18:48:00,
2013-03-29 14:53:00,58.2,29.2,30.19,SE,138,8.0,8.0,33,0.00,,,0.00,WeatherCatV1.11B39,2013-03-29 18:53:00,
2013-03-29 14:58:00,58.2,31.4,30.19,SSW,198,2.0,2.0,36,0.00,,,0.00,WeatherCatV1.11B39,2013-03-29 18:58:00,
2013-03-29 15:03:00,58.6,29.6,30.19,West,279,6.0,8.0,33,0.00,,,0.00,WeatherCatV1.11B39,2013-03-29 19:03:00,
2013-03-29 15:08:00,58.9,30.6,30.19,SSW,198,4.0,7.0,34,0.00,,,0.00,WeatherCatV1.11B39,2013-03-29 19:08:00,
2013-03-29 15:13:00,59.3,29.4,30.19,SSE,155,8.0,12.0,32,0.00,,,0.00,WeatherCatV1.11B39,2013-03-29 19:13:00,
2013-03-29 15:18:00,59.5,31.1,30.18,SSE,166,9.0,14.0,34,0.00,,,0.00,WeatherCatV1.11B39,2013-03-29 19:18:00,
2013-03-29 15:23:00,59.0,29.9,30.18,South,182,10.0,21.0,33,0.00,,,0.00,WeatherCatV1.11B39,2013-03-29 19:23:00,
2013-03-29 15:28:00,58.7,29.7,30.18,NNW,330,5.0,8.0,33,0.00,,,0.00,WeatherCatV1.11B39,2013-03-29 19:28:00,
2013-03-29 15:33:00,59.3,30.2,30.18,South,173,10.0,13.0,33,0.00,,,0.00,WeatherCatV1.11B39,2013-03-29 19:33:00,
2013-03-29 15:38:00,59.7,32.7,30.17,SE,143,4.0,11.0,36,0.00,,,0.00,WeatherCatV1.11B39,2013-03-29 19:38:00,
2013-03-29 15:43:00,60.1,33.1,30.17,SE,142,9.0,12.0,36,0.00,,,0.00,WeatherCatV1.11B39,2013-03-29 19:43:00,
2013-03-29 15:48:00,60.0,30.8,30.17,SSW,192,1.0,14.0,33,0.00,,,0.00,WeatherCatV1.11B39,2013-03-29 19:48:00,
2013-03-29 15:53:00,60.1,30.9,30.16,ENE,64,2.0,4.0,33,0.00,,,0.00,WeatherCatV1.11B39,2013-03-29 19:53:00,
2013-03-29 15:58:00,60.5,30.5,30.16,NW,321,0.0,7.0,32,0.00,,,0.00,WeatherCatV1.11B39,2013-03-29 19:58:00,
2013-03-29 16:03:00,60.9,31.6,30.16,NNW,348,8.0,9.0,33,0.00,,,0.00,WeatherCatV1.11B39,2013-03-29 20:03:00,
2013-03-29 16:08:00,60.8,30.8,30.16,WSW,246,4.0,10.0,32,0.00,,,0.00,WeatherCatV1.11B39,2013-03-29 20:08:00,
2013-03-29 16:13:00,60.5,30.5,30.16,WSW,238,5.0,7.0,32,0.00,,,0.00,WeatherCatV1.11B39,2013-03-29 20:13:00,
2013-03-29 16:18:00,60.2,31.7,30.16,SSE,166,2.0,5.0,34,0.00,,,0.00,WeatherCatV1.11B39,2013-03-29 20:18:00,
2013-03-29 16:23:00,60.0,30.8,30.16,West,273,5.0,8.0,33,0.00,,,0.00,WeatherCatV1.11B39,2013-03-29 20:23:00,
2013-03-29 16:28:00,60.0,31.6,30.16,West,271,8.0,11.0,34,0.00,,,0.00,WeatherCatV1.11B39,2013-03-29 20:28:00,
2013-03-29 16:33:00,59.9,30.7,30.15,West,270,6.0,8.0,33,0.00,,,0.00,WeatherCatV1.11B39,2013-03-29 20:33:00,
2013-03-29 16:38:00,59.9,32.2,30.16,West,269,3.0,3.0,35,0.00,,,0.00,WeatherCatV1.11B39,2013-03-29 20:38:00,
2013-03-29 16:43:00,60.0,32.3,30.16,West,271,2.0,4.0,35,0.00,,,0.00,WeatherCatV1.11B39,2013-03-29 20:43:00,
2013-03-29 16:48:00,59.9,31.5,30.15,WSW,252,4.0,7.0,34,0.00,,,0.00,WeatherCatV1.11B39,2013-03-29 20:48:00,
2013-03-29 16:53:00,59.9,31.5,30.16,West,279,9.0,9.0,34,0.00,,,0.00,WeatherCatV1.11B39,2013-03-29 20:53:00,
2013-03-29 16:58:00,59.6,31.9,30.16,WSW,256,3.0,5.0,35,0.00,,,0.00,WeatherCatV1.11B39,2013-03-29 20:58:00,
2013-03-29 17:02:00,59.5,31.8,30.16,WSW,257,2.0,7.0,35,0.00,,,0.00,WeatherCatV1.11B39,2013-03-29 21:02:00,
2013-03-29 17:07:00,59.4,31.7,30.16,West,270,2.0,9.0,35,0.00,,,0.00,WeatherCatV1.11B39,2013-03-29 21:07:00,
2013-03-29 17:12:00,59.2,32.3,30.15,SW,235,5.0,8.0,36,0.00,,,0.00,WeatherCatV1.11B39,2013-03-29 21:12:00,
2013-03-29 17:17:00,59.1,32.2,30.15,West,274,4.0,7.0,36,0.00,,,0.00,WeatherCatV1.11B39,2013-03-29 21:17:00,
2013-03-29 17:22:00,59.0,32.8,30.15,West,259,6.0,6.0,37,0.00,,,0.00,WeatherCatV1.11B39,2013-03-29 21:22:00,
2013-03-29 17:27:00,58.8,31.9,30.15,SSW,201,5.0,7.0,36,0.00,,,0.00,WeatherCatV1.11B39,2013-03-29 21:27:00,
2013-03-29 17:32:00,58.7,31.8,30.15,WSW,248,1.0,8.0,36,0.00,,,0.00,WeatherCatV1.11B39,2013-03-29 21:32:00,
2013-03-29 17:37:00,58.6,31.7,30.15,West,262,5.0,7.0,36,0.00,,,0.00,WeatherCatV1.11B39,2013-03-29 21:37:00,
2013-03-29 17:42:00,58.6,32.4,30.15,West,281,9.0,9.0,37,0.00,,,0.00,WeatherCatV1.11B39,2013-03-29 21:42:00,
2013-03-29 17:47:00,58.5,31.6,30.15,WNW,289,5.0,7.0,36,0.00,,,0.00,WeatherCatV1.11B39,2013-03-29 21:47:00,
2013-03-29 17:52:00,58.5,31.6,30.15,SW,225,3.0,5.0,36,0.00,,,0.00,WeatherCatV1.11B39,2013-03-29 21:52:00,
2013-03-29 17:57:00,58.4,31.6,30.15,West,274,5.0,9.0,36,0.00,,,0.00,WeatherCatV1.11B39,2013-03-29 21:57:00,
2013-03-29 18:02:00,58.4,32.2,30.15,WSW,237,4.0,5.0,37,0.00,,,0.00,WeatherCatV1.11B39,2013-03-29 22:02:00,
2013-03-29 18:07:00,58.3,31.5,30.15,WSW,250,2.0,3.0,36,0.00,,,0.00,WeatherCatV1.11B39,2013-03-29 22:07:00,
2013-03-29 18:12:00,58.3,31.5,30.15,SW,220,0.0,1.0,36,0.00,,,0.00,WeatherCatV1.11B39,2013-03-29 22:12:00,
2013-03-29 18:17:00,58.2,31.4,30.15,SW,220,2.0,2.0,36,0.00,,,0.00,WeatherCatV1.11B39,2013-03-29 22:17:00,
2013-03-29 18:22:00,58.2,31.4,30.15,WSW,254,3.0,3.0,36,0.00,,,0.00,WeatherCatV1.11B39,2013-03-29 22:22:00,
2013-03-29 18:27:00,58.3,31.5,30.15,West,263,1.0,5.0,36,0.00,,,0.00,WeatherCatV1.11B39,2013-03-29 22:27:00,
2013-03-29 18:32:00,58.3,32.1,30.15,West,277,5.0,6.0,37,0.00,,,0.00,WeatherCatV1.11B39,2013-03-29 22:32:00,
2013-03-29 18:37:00,58.2,31.4,30.15,West,271,7.0,7.0,36,0.00,,,0.00,WeatherCatV1.11B39,2013-03-29 22:37:00,
2013-03-29 18:42:00,58.1,30.6,30.15,West,271,0.0,4.0,35,0.00,,,0.00,WeatherCatV1.11B39,2013-03-29 22:42:00,
2013-03-29 18:47:00,58.0,31.2,30.15,West,271,6.0,7.0,36,0.00,,,0.00,WeatherCatV1.11B39,2013-03-29 22:47:00,
2013-03-29 18:52:00,57.8,31.0,30.15,NNE,13,0.0,4.0,36,0.00,,,0.00,WeatherCatV1.11B39,2013-03-29 22:52:00,
2013-03-29 18:57:00,57.7,31.6,30.15,NW,309,4.0,5.0,37,0.00,,,0.00,WeatherCatV1.11B39,2013-03-29 22:57:00,
2013-03-29 19:02:00,57.4,31.3,30.15,NW,313,7.0,8.0,37,0.00,,,0.00,WeatherCatV1.11B39,2013-03-29 23:02:00,
2013-03-29 19:07:00,57.1,31.1,30.15,NW,323,6.0,6.0,37,0.00,,,0.00,WeatherCatV1.11B39,2013-03-29 23:07:00,
2013-03-29 19:12:00,56.9,32.2,30.15,NNW,342,8.0,10.0,39,0.00,,,0.00,WeatherCatV1.11B39,2013-03-29 23:12:00,
2013-03-29 19:17:00,56.6,31.9,30.15,NW,313,5.0,6.0,39,0.00,,,0.00,WeatherCatV1.11B39,2013-03-29 23:17:00,
2013-03-29 19:22:00,56.4,32.4,30.15,North,9,2.0,3.0,40,0.00,,,0.00,WeatherCatV1.11B39,2013-03-29 23:22:00,
2013-03-29 19:27:00,56.1,32.7,30.15,NNW,345,0.0,1.0,41,0.00,,,0.00,WeatherCatV1.11B39,2013-03-29 23:27:00,
2013-03-29 19:32:00,55.9,32.5,30.15,NW,320,1.0,4.0,41,0.00,,,0.00,WeatherCatV1.11B39,2013-03-29 23:32:00,
2013-03-29 19:37:00,55.7,32.4,30.15,WNW,299,1.0,7.0,41,0.00,,,0.00,WeatherCatV1.11B39,2013-03-29 23:37:00,
2013-03-29 19:42:00,55.5,32.8,30.15,NW,304,1.0,4.0,42,0.00,,,0.00,WeatherCatV1.11B39,2013-03-29 23:42:00,
2013-03-29 19:47:00,55.4,33.3,30.15,NNW,346,0.0,5.0,43,0.00,,,0.00,WeatherCatV1.11B39,2013-03-29 23:47:00,
2013-03-29 19:52:00,55.2,33.7,30.15,NNE,20,2.0,3.0,44,0.00,,,0.00,WeatherCatV1.11B39,2013-03-29 23:52:00,
2013-03-29 19:57:00,54.9,34.5,30.15,NNW,327,0.0,4.0,46,0.00,,,0.00,WeatherCatV1.11B39,2013-03-29 23:57:00,
2013-03-29 20:02:00,54.7,35.9,30.15,NNW,331,5.0,5.0,49,0.00,,,0.00,WeatherCatV1.11B39,2013-03-30 00:02:00,
2013-03-29 20:07:00,54.3,36.1,30.15,WNW,293,5.0,5.0,50,0.00,,,0.00,WeatherCatV1.11B39,2013-03-30 00:07:00,
2013-03-29 20:12:00,54.0,35.8,30.15,WNW,293,0.0,0.0,50,0.00,,,0.00,WeatherCatV1.11B39,2013-03-30 00:12:00,
2013-03-29 20:17:00,53.7,37.0,30.15,WNW,293,0.0,0.0,53,0.00,,,0.00,WeatherCatV1.11B39,2013-03-30 00:17:00,
2013-03-29 20:22:00,53.3,37.1,30.14,WNW,293,0.0,0.0,54,0.00,,,0.00,WeatherCatV1.11B39,2013-03-30 00:22:00,
2013-03-29 20:27:00,53.0,36.8,30.14,WNW,293,0.0,1.0,54,0.00,,,0.00,WeatherCatV1.11B39,2013-03-30 00:27:00,
2013-03-29 20:32:00,52.8,38.9,30.14,WNW,293,0.0,2.0,59,0.00,,,0.00,WeatherCatV1.11B39,2013-03-30 00:32:00,
2013-03-29 20:37:00,52.5,36.8,30.14,WNW,294,0.0,4.0,55,0.00,,,0.00,WeatherCatV1.11B39,2013-03-30 00:37:00,
2013-03-29 20:42:00,52.4,35.8,30.14,NW,307,0.0,2.0,53,0.00,,,0.00,WeatherCatV1.11B39,2013-03-30 00:42:00,
2013-03-29 20:47:00,52.3,38.4,30.14,NW,307,0.0,2.0,59,0.00,,,0.00,WeatherCatV1.11B39,2013-03-30 00:47:00,
2013-03-29 20:52:00,52.2,36.5,30.15,NW,307,4.0,4.0,55,0.00,,,0.00,WeatherCatV1.11B39,2013-03-30 00:52:00,
2013-03-29 20:57:00,52.1,37.8,30.15,NW,307,1.0,2.0,58,0.00,,,0.00,WeatherCatV1.11B39,2013-03-30 00:57:00,
2013-03-29 21:02:00,51.9,37.2,30.15,NW,307,1.0,1.0,57,0.00,,,0.00,WeatherCatV1.11B39,2013-03-30 01:02:00,
2013-03-29 21:07:00,51.9,37.2,30.15,NW,307,0.0,1.0,57,0.00,,,0.00,WeatherCatV1.11B39,2013-03-30 01:07:00,
2013-03-29 21:12:00,51.9,35.8,30.15,NW,307,2.0,2.0,54,0.00,,,0.00,WeatherCatV1.11B39,2013-03-30 01:12:00,
2013-03-29 21:17:00,52.0,36.3,30.15,NW,307,0.0,0.0,55,0.00,,,0.00,WeatherCatV1.11B39,2013-03-30 01:17:00,
2013-03-29 21:22:00,52.0,35.9,30.15,NW,307,0.0,0.0,54,0.00,,,0.00,WeatherCatV1.11B39,2013-03-30 01:22:00,
2013-03-29 21:27:00,51.9,36.2,30.15,NW,307,0.0,0.0,55,0.00,,,0.00,WeatherCatV1.11B39,2013-03-30 01:27:00,
2013-03-29 21:32:00,51.8,36.2,30.15,NW,307,0.0,0.0,55,0.00,,,0.00,WeatherCatV1.11B39,2013-03-30 01:32:00,
2013-03-29 21:37:00,51.7,36.5,30.15,NW,307,0.0,0.0,56,0.00,,,0.00,WeatherCatV1.11B39,2013-03-30 01:37:00,
2013-03-29 21:42:00,51.6,36.4,30.15,NW,307,0.0,0.0,56,0.00,,,0.00,WeatherCatV1.11B39,2013-03-30 01:42:00,
2013-03-29 21:47:00,51.5,35.9,30.15,NW,307,0.0,0.0,55,0.00,,,0.00,WeatherCatV1.11B39,2013-03-30 01:47:00,
2013-03-29 21:52:00,51.5,35.4,30.15,NW,307,0.0,2.0,54,0.00,,,0.00,WeatherCatV1.11B39,2013-03-30 01:52:00,
2013-03-29 21:57:00,51.4,36.7,30.15,NW,307,0.0,0.0,57,0.00,,,0.00,WeatherCatV1.11B39,2013-03-30 01:57:00,
2013-03-29 22:01:00,51.4,36.7,30.14,NW,307,0.0,0.0,57,0.00,,,0.00,WeatherCatV1.11B39,2013-03-30 02:01:00,
2013-03-29 22:06:00,51.2,36.9,30.15,NW,307,0.0,0.0,58,0.00,,,0.00,WeatherCatV1.11B39,2013-03-30 02:06:00,
2013-03-29 22:11:00,51.1,37.7,30.15,NW,307,0.0,0.0,60,0.00,,,0.00,WeatherCatV1.11B39,2013-03-30 02:11:00,
2013-03-29 22:16:00,50.9,37.5,30.15,NW,307,0.0,0.0,60,0.00,,,0.00,WeatherCatV1.11B39,2013-03-30 02:16:00,
2013-03-29 22:21:00,50.7,37.3,30.15,NW,307,0.0,0.0,60,0.00,,,0.00,WeatherCatV1.11B39,2013-03-30 02:21:00,
2013-03-29 22:26:00,50.6,37.7,30.15,NW,307,0.0,0.0,61,0.00,,,0.00,WeatherCatV1.11B39,2013-03-30 02:26:00,
2013-03-29 22:31:00,50.4,37.0,30.15,NW,307,0.0,0.0,60,0.00,,,0.00,WeatherCatV1.11B39,2013-03-30 02:31:00,
2013-03-29 22:36:00,50.3,38.2,30.15,NW,307,0.0,0.0,63,0.00,,,0.00,WeatherCatV1.11B39,2013-03-30 02:36:00,
2013-03-29 22:41:00,50.2,38.1,30.15,NW,307,0.0,0.0,63,0.00,,,0.00,WeatherCatV1.11B39,2013-03-30 02:41:00,
2013-03-29 22:46:00,50.1,37.6,30.15,NW,307,0.0,1.0,62,0.00,,,0.00,WeatherCatV1.11B39,2013-03-30 02:46:00,
2013-03-29 22:51:00,50.0,37.5,30.15,NW,307,0.0,2.0,62,0.00,,,0.00,WeatherCatV1.11B39,2013-03-30 02:51:00,
2013-03-29 22:56:00,50.0,36.7,30.15,NW,307,0.0,0.0,60,0.00,,,0.00,WeatherCatV1.11B39,2013-03-30 02:56:00,
2013-03-29 23:01:00,50.0,39.5,30.15,NW,307,0.0,1.0,67,0.00,,,0.00,WeatherCatV1.11B39,2013-03-30 03:01:00,
2013-03-29 23:06:00,49.8,38.9,30.16,NW,307,1.0,2.0,66,0.00,,,0.00,WeatherCatV1.11B39,2013-03-30 03:06:00,
2013-03-29 23:11:00,49.7,38.0,30.16,NW,307,0.0,1.0,64,0.00,,,0.00,WeatherCatV1.11B39,2013-03-30 03:11:00,
2013-03-29 23:16:00,49.6,38.7,30.16,NW,307,2.0,4.0,66,0.00,,,0.00,WeatherCatV1.11B39,2013-03-30 03:16:00,
2013-03-29 23:21:00,49.5,38.2,30.16,NW,307,4.0,5.0,65,0.00,,,0.00,WeatherCatV1.11B39,2013-03-30 03:21:00,
2013-03-29 23:26:00,49.4,38.1,30.16,NW,307,0.0,1.0,65,0.00,,,0.00,WeatherCatV1.11B39,2013-03-30 03:26:00,
2013-03-29 23:31:00,49.4,38.9,30.16,NW,307,0.0,0.0,67,0.00,,,0.00,WeatherCatV1.11B39,2013-03-30 03:31:00,
2013-03-29 23:36:00,49.4,37.7,30.16,NW,307,0.0,0.0,64,0.00,,,0.00,WeatherCatV1.11B39,2013-03-30 03:36:00,
2013-03-29 23:41:00,49.4,39.3,30.16,NW,307,0.0,4.0,68,0.00,,,0.00,WeatherCatV1.11B39,2013-03-30 03:41:00,
2013-03-29 23:46:00,49.3,39.9,30.16,NW,307,0.0,0.0,70,0.00,,,0.00,WeatherCatV1.11B39,2013-03-30 03:46:00,
2013-03-29 23:51:00,49.2,38.7,30.16,NW,307,0.0,0.0,67,0.00,,,0.00,WeatherCatV1.11B39,2013-03-30 03:51:00,
2013-03-29 23:56:00,49.0,38.5,30.16,NW,307,0.0,0.0,67,0.00,,,0.00,WeatherCatV1.11B39,2013-03-30 03:56:00,